Latest Weather Observations for Coonamble

IDN60801

Issued at 6:34 pm EDT Monday 26 January 2015 (issued every 30 minutes, with the page automatically refreshed every 10 minutes)

About weather observations | Map of weather stations | Latest weather observations for NSW | Other Formats
Station Details ID: 051161 Name: COONAMBLE AIRPORT AWS Lat: -30.98 Lon: 148.38 Height: 181.3 m
Data from the previous 72 hours. | See also: Recent months at Coonamble
Date/Time
EDT
Temp
°C
App
Temp
°C
Dew
Point
Rel
Hum
%
Delta-T
°C
Wind Press
QNH
hPa
Press
MSL
hPa
Rain
since 9 am
mm
Dir
 
Spd
km/h
Gust
km/h
Spd
kts
Gust
kts
26/06:30pm 33.7 26.4 5.3 17 15.3 SSW 33 46 18 25 1005.1 1004.0 0.0
26/06:00pm 34.8 27.3 3.4 14 16.5 SSW 32 39 17 21 - - 0.0
26/05:30pm 35.1 28.8 5.5 16 16.1 SSW 28 43 15 23 - - 0.0
26/05:00pm 35.8 30.1 5.1 15 16.6 S 24 39 13 21 - - 0.0
26/04:41pm 35.7 28.7 4.1 14 16.9 SSW 30 48 16 26 - - 0.0
26/04:30pm 35.5 28.8 3.9 14 16.8 SSW 28 39 15 21 - - 0.0
26/04:00pm 34.9 28.6 3.5 14 16.5 SSW 26 39 14 21 - - 0.0
26/03:30pm 35.4 28.7 3.8 14 16.8 SSW 28 39 15 21 - - 0.0
26/03:00pm 35.8 29.6 4.2 14 16.9 SSW 26 37 14 20 - - 0.0
26/02:30pm 34.4 28.9 4.0 15 16.1 SW 22 33 12 18 1006.1 1004.9 0.0
26/02:00pm 34.9 29.7 5.4 16 16.0 SSW 22 35 12 19 1006.4 1005.2 0.0
26/01:30pm 34.6 29.9 7.6 19 15.1 SSW 22 32 12 17 1006.6 1005.4 0.0
26/01:00pm 34.1 29.6 10.0 23 14.0 SSW 24 39 13 21 1006.9 1005.7 0.0
26/12:30pm 33.4 30.0 10.7 25 13.3 S 19 28 10 15 1007.3 1006.1 0.0
26/12:00pm 31.8 28.8 9.3 25 12.8 S 15 24 8 13 1007.7 1006.5 0.0
26/11:30am 33.0 29.6 10.4 25 13.1 SSW 19 28 10 15 1008.1 1006.9 0.0
26/11:00am 31.6 28.3 10.9 28 12.1 SSW 19 35 10 19 1008.2 1007.0 0.0
26/10:30am 30.8 27.5 11.7 31 11.2 S 20 30 11 16 1008.4 1007.3 0.0
26/10:00am 29.0 25.2 11.1 33 10.4 SSW 22 30 12 16 1008.5 1007.4 0.0
26/09:30am 27.6 23.9 11.6 37 9.3 S 22 30 12 16 1008.5 1007.4 0.0
26/09:00am 25.7 20.8 9.9 37 8.8 S 26 33 14 18 1008.5 1007.4 0.0
26/08:30am 23.9 18.5 7.9 36 8.5 S 26 33 14 18 1008.4 1007.3 0.0
26/08:00am 22.9 17.2 6.6 35 8.4 S 26 35 14 19 1008.2 1007.0 0.0
26/07:30am 21.9 16.1 6.2 36 8.0 S 26 32 14 17 1008.3 1007.2 0.0
26/07:00am 21.0 15.1 5.8 37 7.7 S 26 33 14 18 1008.0 1006.8 0.0
26/06:30am 20.7 15.2 5.9 38 7.4 S 24 30 13 16 1007.7 1006.5 0.0
26/06:00am 21.2 16.6 6.3 38 7.6 S 20 28 11 15 1007.3 1006.1 0.0
26/05:30am 21.5 16.4 6.2 37 7.8 S 22 30 12 16 1007.0 1005.8 0.0
26/05:00am 21.8 16.9 6.9 38 7.7 S 22 30 12 16 1007.1 1005.9 0.0
26/04:30am 22.3 16.7 7.3 38 7.8 S 26 33 14 18 1006.7 1005.5 0.0
26/04:00am 22.8 17.4 7.8 38 7.9 S 26 35 14 19 1007.0 1005.8 0.0
26/03:30am 23.3 17.9 8.2 38 8.1 S 26 35 14 19 1006.8 1005.6 0.0
26/03:00am 23.7 18.0 8.5 38 8.2 S 28 39 15 21 1006.8 1005.6 0.0
26/02:30am 24.3 19.8 8.7 37 8.4 S 22 33 12 18 1007.0 1005.8 0.0
26/02:00am 24.4 20.4 8.4 36 8.6 S 19 24 10 13 1007.0 1005.8 0.0
26/01:30am 25.3 20.6 7.9 33 9.3 S 22 30 12 16 1007.1 1005.9 0.0
26/01:00am 25.9 21.3 8.0 32 9.7 S 22 28 12 15 1007.2 1006.0 0.0
26/12:30am 26.4 21.5 8.4 32 9.8 S 24 32 13 17 1007.3 1006.1 0.0
26/12:00am 26.9 23.0 9.3 33 9.8 S 20 28 11 15 1007.4 1006.2 0.0
 
Date/Time
EDT
Temp
°C
App
Temp
°C
Dew
Point
Rel
Hum
%
Delta-T
°C
Wind Press
QNH
hPa
Press
MSL
hPa
Rain
since 9 am
mm
Dir
 
Spd
km/h
Gust
km/h
Spd
kts
Gust
kts
25/11:30pm 27.1 23.2 9.5 33 9.8 S 20 26 11 14 1007.2 1006.0 0.0
25/11:00pm 28.3 23.3 9.6 31 10.5 S 26 33 14 18 1007.2 1006.0 0.0
25/10:30pm 28.4 24.7 10.1 32 10.4 SSW 20 28 11 15 1007.2 1006.0 0.0
25/10:00pm 29.0 24.9 10.2 31 10.7 SSW 22 28 12 15 1007.0 1005.8 0.0
25/09:30pm 29.6 25.5 10.2 30 11.1 SSW 22 30 12 16 1006.6 1005.4 0.0
25/09:00pm 30.4 25.6 10.4 29 11.5 SSW 26 33 14 18 1006.3 1005.1 0.0
25/08:30pm 30.8 26.2 11.2 30 11.4 SSW 26 35 14 19 1005.7 1004.6 0.0
25/08:00pm 31.6 26.7 11.4 29 11.9 SW 28 35 15 19 1005.3 1004.2 0.0
25/07:30pm 33.0 28.2 11.5 27 12.7 SW 28 37 15 20 1004.9 1003.8 0.0
25/07:00pm 33.8 29.5 12.2 27 13.0 WSW 26 37 14 20 1004.5 1003.4 0.0
25/06:30pm 34.5 29.9 11.0 24 13.9 SW 26 37 14 20 1004.2 1003.1 0.0
25/06:00pm 35.0 30.0 10.8 23 14.3 WSW 28 41 15 22 1004.0 1002.9 0.0
25/05:30pm 35.6 31.3 10.6 22 14.7 WSW 24 37 13 20 1003.8 1002.7 0.0
25/05:00pm 36.0 31.7 10.9 22 14.9 WSW 24 41 13 22 1003.7 1002.6 0.0
25/04:30pm 36.0 32.5 12.2 23 14.4 SW 22 35 12 19 1003.8 1002.7 0.0
25/04:00pm 36.3 32.9 12.5 24 14.5 WSW 22 35 12 19 1004.0 1002.9 0.0
25/03:30pm 35.8 33.2 13.9 27 13.6 WSW 20 33 11 18 1004.2 1003.1 0.0
25/03:00pm 35.9 32.8 14.5 27 13.4 SW 24 41 13 22 1004.4 1003.3 0.0
25/02:30pm 34.7 32.0 14.6 30 12.5 WSW 22 35 12 19 1004.7 1003.6 0.0
25/02:00pm 34.2 32.9 14.7 31 12.2 W 15 30 8 16 1005.0 1003.9 0.0
25/01:30pm 33.2 30.8 14.3 32 11.7 WSW 20 33 11 18 1005.3 1004.2 0.0
25/01:00pm 33.8 32.9 14.8 32 11.9 SW 13 28 7 15 1005.5 1004.4 0.0
25/12:30pm 33.0 31.3 14.6 33 11.4 WNW 17 32 9 17 1005.9 1004.7 0.0
25/12:00pm 33.1 30.6 14.2 32 11.7 W 20 32 11 17 1006.1 1004.9 0.0
25/11:30am 32.1 29.9 14.3 34 10.9 W 19 30 10 16 1006.2 1005.0 0.0
25/11:00am 31.1 29.5 15.1 38 9.9 WNW 17 30 9 16 1006.3 1005.1 0.0
25/10:30am 30.1 29.0 15.4 41 9.1 WNW 15 24 8 13 1006.4 1005.2 0.0
25/10:00am 29.6 29.3 16.4 45 8.3 NNW 13 20 7 11 1006.5 1005.3 0.0
25/09:30am 28.5 28.7 16.7 48 7.4 N 11 17 6 9 1006.4 1005.2 0.0
25/09:00am 27.5 28.3 17.4 54 6.4 NNE 9 13 5 7 1006.6 1005.4 0.0
25/08:30am 26.4 27.7 17.5 58 5.6 N 7 11 4 6 1006.6 1005.4 0.0
25/08:00am 25.5 26.9 17.4 61 5.1 W 6 9 3 5 1006.6 1005.4 0.0
25/07:30am 23.8 26.9 18.7 73 3.3 CALM 0 7 0 4 1006.2 1005.0 0.0
25/07:00am 21.7 24.6 19.1 85 1.7 SW 2 9 1 5 1005.9 1004.7 0.0
25/06:30am 21.0 23.8 18.0 83 1.9 CALM 0 0 0 0 1005.3 1004.2 0.0
25/06:00am 21.5 23.1 17.9 80 2.3 WSW 6 7 3 4 1005.3 1004.2 0.0
25/05:30am 22.4 23.0 17.8 75 2.9 WSW 11 15 6 8 1005.0 1003.9 0.0
25/05:00am 22.4 25.2 18.0 76 2.8 CALM 0 0 0 0 1004.4 1003.3 0.0
25/04:30am 23.4 25.7 17.6 70 3.6 N 2 6 1 3 1004.4 1003.3 0.0
25/04:00am 24.1 26.1 17.8 68 4.0 NNW 4 6 2 3 1004.4 1003.3 0.0
25/03:30am 24.3 25.9 17.8 67 4.1 N 6 9 3 5 1004.6 1003.5 0.0
25/03:00am 24.1 25.1 17.8 68 4.0 NNE 9 13 5 7 1004.5 1003.4 0.0
25/02:30am 23.8 25.2 18.7 73 3.3 N 9 9 5 5 1004.8 1003.7 0.0
25/02:00am 23.6 26.2 18.5 73 3.2 NNE 2 7 1 4 1005.0 1003.9 0.0
25/01:30am 24.1 25.0 17.6 67 4.1 NE 9 13 5 7 1004.9 1003.8 0.0
25/01:00am 24.1 24.7 17.6 67 4.1 NE 11 13 6 7 1005.2 1004.1 0.0
25/12:30am 24.1 24.7 17.6 67 4.1 E 11 15 6 8 1005.5 1004.4 0.0
25/12:00am 24.0 24.6 16.8 64 4.5 ESE 9 11 5 6 1006.2 1005.0 0.0
 
Date/Time
EDT
Temp
°C
App
Temp
°C
Dew
Point
Rel
Hum
%
Delta-T
°C
Wind Press
QNH
hPa
Press
MSL
hPa
Rain
since 9 am
mm
Dir
 
Spd
km/h
Gust
km/h
Spd
kts
Gust
kts
24/11:30pm 24.7 24.5 16.7 61 5.0 SSE 13 19 7 10 1006.6 1005.4 0.0
24/11:00pm 25.0 24.8 16.7 60 5.2 S 13 19 7 10 1006.8 1005.6 0.0
24/10:30pm 24.9 23.7 17.1 62 4.9 SSW 19 22 10 12 1006.8 1005.6 0.0
24/10:00pm 25.0 22.9 17.2 62 4.9 SSW 24 32 13 17 1006.7 1005.5 0.0
24/09:30pm 25.7 22.8 17.1 59 5.4 SSW 28 39 15 21 1006.5 1005.3 0.0
24/09:19pm 25.7 22.6 17.4 60 5.2 SSW 30 48 16 26 1006.3 1005.1 0.0
24/09:00pm 25.9 21.0 17.3 59 5.4 SW 39 54 21 29 1006.1 1004.9 0.0
24/08:35pm 27.1 21.8 16.4 52 6.7 SW 39 57 21 31 1005.3 1004.2 0.0
24/08:30pm 27.2 21.1 16.2 51 6.8 SW 43 59 23 32 1005.4 1004.3 0.0
24/08:18pm 28.8 26.6 15.0 43 8.5 WNW 20 63 11 34 1004.8 1003.7 0.0
24/08:17pm 30.0 28.5 14.1 37 9.7 WNW 15 63 8 34 - - 0.0
24/08:00pm 32.4 30.7 9.9 25 12.9 NNW 9 13 5 7 - - 0.0
24/07:30pm 33.6 31.7 9.0 22 14.0 NNW 9 15 5 8 - - 0.0
24/07:00pm 34.2 32.4 9.4 22 14.3 N 9 17 5 9 - - 0.0
24/06:30pm 34.6 32.3 10.4 23 14.2 NNE 13 19 7 10 - - 0.0
24/06:00pm 34.7 33.2 10.5 23 14.2 NE 9 15 5 8 - - 0.0
24/05:30pm 34.9 33.4 10.7 23 14.2 NNE 9 22 5 12 - - 0.0
24/05:00pm 34.6 31.4 11.1 24 13.9 NE 19 28 10 15 - - 0.0
24/04:30pm 34.5 32.5 11.6 25 13.6 NNW 13 26 7 14 - - 0.0
24/04:00pm 34.0 32.7 11.2 25 13.5 NE 9 19 5 10 1003.9 1002.8 0.0
24/03:30pm 34.1 32.4 13.5 28 12.6 NW 15 22 8 12 1004.5 1003.4 0.0
24/03:00pm 34.4 33.3 14.3 30 12.5 NW 13 22 7 12 1005.2 1004.1 0.0
24/02:30pm 32.8 30.6 13.4 30 11.8 N 17 22 9 12 1005.7 1004.6 0.0
24/02:00pm 32.6 31.3 13.8 32 11.5 N 13 20 7 11 1006.1 1004.9 0.0
24/01:30pm 32.0 30.5 14.2 34 10.9 NNE 15 22 8 12 1006.6 1005.4 0.0
24/01:00pm 31.3 30.0 14.9 37 10.2 N 15 28 8 15 1007.0 1005.8 0.0
24/12:30pm 30.6 29.3 14.7 38 9.8 N 15 22 8 12 1007.4 1006.2 0.0
24/12:00pm 30.4 30.0 15.3 40 9.4 NNE 11 19 6 10 1007.8 1006.6 0.0
24/11:30am 29.1 28.9 15.6 44 8.4 NNE 11 17 6 9 1008.0 1006.8 0.0
24/11:00am 28.5 27.3 15.1 44 8.2 N 15 22 8 12 1008.3 1007.2 0.0
24/10:30am 28.2 27.3 15.8 47 7.7 N 15 26 8 14 1008.5 1007.4 0.0
24/10:00am 27.4 26.1 15.7 48 7.2 N 17 24 9 13 1008.7 1007.6 0.0
24/09:30am 26.7 26.5 16.6 54 6.3 N 13 19 7 10 1008.7 1007.6 0.0
24/09:00am 26.0 26.4 18.2 62 5.0 NNE 13 19 7 10 1008.6 1007.5 12.0
24/08:30am 24.5 26.0 18.0 67 4.1 NNW 7 11 4 6 1008.5 1007.4 12.0
24/08:00am 23.7 25.9 19.2 76 2.9 NE 6 7 3 4 1008.1 1006.9 12.0
24/07:30am 22.5 25.8 21.8 96 0.5 E 7 9 4 5 1007.7 1006.5 12.0
24/07:00am 20.7 22.9 20.4 98 0.2 E 9 11 5 6 1007.6 1006.4 12.0
24/06:30am 19.9 22.3 19.6 98 0.2 NE 6 7 3 4 1007.3 1006.1 12.0
24/06:00am 20.0 22.4 19.7 98 0.2 NE 6 7 3 4 1007.1 1005.9 12.0
24/05:30am 20.5 22.2 20.2 98 0.2 NE 11 13 6 7 1007.0 1005.8 12.0
24/05:00am 20.2 21.8 19.9 98 0.2 ENE 11 13 6 7 1006.9 1005.7 12.0
24/04:30am 20.5 22.9 20.0 97 0.3 NE 7 7 4 4 1006.7 1005.5 12.0
24/04:00am 20.5 22.9 20.0 97 0.3 NNE 7 7 4 4 1006.6 1005.4 12.0
24/03:30am 21.1 24.0 20.6 97 0.3 NE 6 7 3 4 1006.8 1005.6 12.0
24/03:00am 21.5 24.6 21.0 97 0.3 NNE 6 7 3 4 1006.9 1005.7 12.0
24/02:30am 21.9 26.3 21.4 97 0.3 CALM 0 2 0 1 1007.0 1005.8 12.0
24/02:00am 21.9 25.6 21.4 97 0.3 WSW 4 6 2 3 1007.4 1006.2 12.0
24/01:30am 22.5 26.4 20.4 88 1.4 CALM 0 0 0 0 1007.8 1006.6 12.0
24/01:00am 23.0 25.2 20.5 86 1.6 NE 9 13 5 7 1007.7 1006.5 12.0
24/12:30am 23.7 25.5 20.4 82 2.2 NE 11 15 6 8 1007.6 1006.4 12.0
24/12:00am 24.1 26.1 20.8 82 2.2 NE 11 15 6 8 1007.5 1006.3 12.0
 
Date/Time
EDT
Temp
°C
App
Temp
°C
Dew
Point
Rel
Hum
%
Delta-T
°C
Wind Press
QNH
hPa
Press
MSL
hPa
Rain
since 9 am
mm
Dir
 
Spd
km/h
Gust
km/h
Spd
kts
Gust
kts
23/11:30pm 24.7 26.8 21.0 80 2.4 NE 11 15 6 8 1007.4 1006.2 12.0
23/11:00pm 23.8 25.8 20.7 83 2.0 ENE 11 11 6 6 1007.7 1006.5 12.0
23/10:30pm 24.2 26.4 19.7 76 2.9 ENE 7 11 4 6 1007.8 1006.6 12.0
23/10:00pm 24.6 26.9 19.9 75 3.1 NE 7 9 4 5 1007.3 1006.1 12.0
23/09:30pm 25.5 27.2 19.4 69 4.0 N 9 11 5 6 1006.9 1005.7 12.0
23/09:00pm 25.9 27.6 19.3 67 4.3 N 9 13 5 7 1006.5 1005.3 12.0
23/08:30pm 26.3 27.4 18.9 63 4.8 NNE 11 15 6 8 1006.4 1005.2 12.0
23/08:00pm 27.2 27.9 18.8 60 5.4 NNE 13 19 7 10 1006.4 1005.2 12.0
23/07:30pm 27.8 27.0 17.9 54 6.3 NNE 19 26 10 14 1006.2 1005.0 12.0
23/07:00pm 28.1 28.4 18.8 57 6.0 NNE 15 20 8 11 1005.9 1004.7 12.0

Other Formats:

Comma delimited format used in spreadsheet applications
http://www.bom.gov.au/fwo/IDN60801/IDN60801.95718.axf

JavaScript Object Notation format (JSON) in row-major order
http://www.bom.gov.au/fwo/IDN60801/IDN60801.95718.json